« Back
NWS Peachtree City, Ga » Text Product » CSG Terminal Aerodrome Forecast


Printer-friendly Version
Current Version              Previous Versions:   1  2  3  4  5  6  7  8  9  

Terminal Aerodrome Forecast

771
FTUS42 KFFC 231100
TAFCSG
TAF
KCSG 231126Z 2312/2412 33006KT 4SM BR SCT005
      TEMPO 2312/2313 BKN005
     FM231300 34006KT P6SM SKC
     FM231600 35008KT P6SM SKC
     FM232100 31007KT P6SM SKC
     FM240200 36005KT P6SM SKC
     FM241000 04006KT P6SM SKC=

USA.gov is the U.S. government's official web portal to all federal, state and local government web resources and services.